Time;durP1;ratioP1;P1;durP2;ratioP2;P2;SDS_P1;SDS_P2;PMS_P1;PMS_P2;Temp;Humidity;BMP_temperature;BMP_pressure;BME280_temperature;BME280_humidity;BME280_pressure;Samples;Min_cycle;Max_cycle;Signal;HPM_P1;HPM_P2
2023/07/23 00:02:16;;;;;;;18.23;5.18;;;;;;;-143.49;100.00;65027.28;5093705;28;20020;-71
2023/07/23 00:04:41;;;;;;;10.60;4.88;;;;;;;-143.49;100.00;65027.28;5093643;28;20047;-71
2023/07/23 00:07:07;;;;;;;11.93;4.40;;;;;;;-143.49;100.00;65027.28;5093564;28;20020;-71
2023/07/23 00:09:32;;;;;;;8.95;4.63;;;;;;;-143.49;100.00;65027.28;5093278;28;20044;-71
2023/07/23 00:11:57;;;;;;;11.65;4.72;;;;;;;-143.49;100.00;65027.28;5093508;28;20028;-71
2023/07/23 00:14:22;;;;;;;11.77;4.95;;;;;;;-143.49;100.00;65027.28;5093400;28;20024;-71
2023/07/23 00:16:48;;;;;;;9.30;5.03;;;;;;;-143.49;100.00;65027.28;5093341;28;20073;-71
2023/07/23 00:19:19;;;;;;;9.82;4.88;;;;;;;-143.49;100.00;65027.28;5093053;28;20020;-71
2023/07/23 00:21:48;;;;;;;8.85;4.85;;;;;;;-143.49;100.00;65027.28;5093058;28;20467;-71
2023/07/23 00:24:19;;;;;;;9.07;4.20;;;;;;;-143.49;100.00;65027.28;5075268;28;20540;-71
2023/07/23 00:26:45;;;;;;;8.20;4.68;;;;;;;-143.49;100.00;65027.28;5074985;28;20020;-70
2023/07/23 00:29:10;;;;;;;9.70;4.88;;;;;;;-143.49;100.00;65027.28;5093141;28;20020;-71
2023/07/23 00:31:36;;;;;;;13.50;4.97;;;;;;;-143.49;100.00;65027.28;5093224;28;20038;-71
2023/07/23 00:34:03;;;;;;;18.45;5.13;;;;;;;-143.49;100.00;65027.28;5093409;28;20024;-71
2023/07/23 00:36:29;;;;;;;10.30;4.93;;;;;;;-143.49;100.00;65027.28;5093237;28;20028;-71
2023/07/23 00:38:54;;;;;;;12.82;5.45;;;;;;;-143.49;100.00;65027.28;5080651;28;20508;-71
2023/07/23 00:41:19;;;;;;;9.63;5.32;;;;;;;-143.49;100.00;65027.28;5079749;28;20062;-71
2023/07/23 00:43:45;;;;;;;11.75;5.32;;;;;;;-143.49;100.00;65027.28;5097307;28;20028;-70
2023/07/23 00:46:10;;;;;;;14.60;5.43;;;;;;;-143.49;100.00;65027.28;5097416;28;20028;-71
2023/07/23 00:48:35;;;;;;;11.20;5.88;;;;;;;-143.49;100.00;65027.28;5097348;28;20028;-71
2023/07/23 00:51:01;;;;;;;14.68;5.80;;;;;;;-143.49;100.00;65027.28;5079235;28;20023;-71
2023/07/23 00:53:27;;;;;;;12.02;5.97;;;;;;;-143.49;100.00;65027.28;5079205;28;20411;-72
2023/07/23 00:55:53;;;;;;;10.00;5.97;;;;;;;-143.49;100.00;65027.28;5096912;28;20391;-71
2023/07/23 00:58:19;;;;;;;10.88;5.40;;;;;;;-143.49;100.00;65027.28;5097148;28;20024;-71
2023/07/23 01:00:44;;;;;;;15.73;5.90;;;;;;;-143.49;100.00;65027.28;5096853;28;20443;-71
2023/07/23 01:03:10;;;;;;;14.27;5.72;;;;;;;-143.49;100.00;65027.28;5096889;28;20280;-71
2023/07/23 01:05:42;;;;;;;10.70;5.80;;;;;;;-143.49;100.00;65027.28;5097030;28;20028;-71
2023/07/23 01:08:08;;;;;;;9.80;5.70;;;;;;;-143.49;100.00;65027.28;5097011;28;20164;-71
2023/07/23 01:10:34;;;;;;;10.18;5.18;;;;;;;-143.49;100.00;65027.28;5096662;28;20543;-71
2023/07/23 01:12:59;;;;;;;12.57;5.82;;;;;;;-143.49;100.00;65027.28;5096784;28;20106;-71
2023/07/23 01:15:27;;;;;;;11.98;5.60;;;;;;;-143.49;100.00;65027.28;5078487;28;20035;-71
2023/07/23 01:17:56;;;;;;;11.20;5.63;;;;;;;-143.49;100.00;65027.28;5096444;28;20023;-71
2023/07/23 01:20:22;;;;;;;12.25;5.93;;;;;;;-143.49;100.00;65027.28;5096615;28;20395;-71
2023/07/23 01:22:47;;;;;;;12.65;5.90;;;;;;;-143.49;100.00;65027.28;5096471;28;20039;-71
2023/07/23 01:25:12;;;;;;;12.02;6.10;;;;;;;-143.49;100.00;65027.28;5096294;28;20435;-71
2023/07/23 01:27:38;;;;;;;11.60;6.22;;;;;;;-143.49;100.00;65027.28;5078311;28;20545;-71
2023/07/23 01:30:05;;;;;;;11.65;6.10;;;;;;;-143.49;100.00;65027.28;5078058;28;20024;-71
2023/07/23 01:32:31;;;;;;;13.25;6.60;;;;;;;-143.49;100.00;65027.28;5078006;28;20024;-71
2023/07/23 01:34:59;;;;;;;12.50;6.63;;;;;;;-143.49;100.00;65027.28;5077991;28;20501;-71
2023/07/23 01:37:25;;;;;;;14.93;6.25;;;;;;;-143.49;100.00;65027.28;5096228;28;20024;-71
2023/07/23 01:39:50;;;;;;;17.45;6.55;;;;;;;-143.49;100.00;65027.28;5096170;28;20035;-71
2023/07/23 01:42:16;;;;;;;12.45;6.63;;;;;;;-143.49;100.00;65027.28;5077644;28;20072;-71
2023/07/23 01:44:42;;;;;;;14.27;6.10;;;;;;;-143.49;100.00;65027.28;5096237;28;20355;-71
2023/07/23 01:47:07;;;;;;;12.82;6.30;;;;;;;-143.49;100.00;65027.28;5095847;28;20024;-72
2023/07/23 01:49:32;;;;;;;12.70;6.70;;;;;;;-143.49;100.00;65027.28;5095272;28;20020;-70
2023/07/23 01:51:58;;;;;;;13.77;7.03;;;;;;;-143.49;100.00;65027.28;5095892;28;20024;-71
2023/07/23 01:54:23;;;;;;;13.70;6.53;;;;;;;-143.49;100.00;65027.28;5095872;28;20121;-70
2023/07/23 01:56:49;;;;;;;10.43;6.40;;;;;;;-143.49;100.00;65027.28;5095904;28;20435;-71
2023/07/23 01:59:14;;;;;;;13.90;6.50;;;;;;;-143.49;100.00;65027.28;5095845;28;20059;-70
2023/07/23 02:01:40;;;;;;;12.20;6.22;;;;;;;-143.49;100.00;65027.28;5095712;28;20024;-70
2023/07/23 02:04:05;;;;;;;12.68;6.20;;;;;;;-143.49;100.00;65027.28;5095575;28;20020;-71
2023/07/23 02:06:30;;;;;;;10.50;5.95;;;;;;;-143.49;100.00;65027.28;5095638;28;20030;-70
2023/07/23 02:08:56;;;;;;;13.60;6.20;;;;;;;-143.49;100.00;65027.28;5095486;28;20044;-70
2023/07/23 02:11:21;;;;;;;12.90;6.10;;;;;;;-143.49;100.00;65027.28;5095502;28;20024;-71
2023/07/23 02:13:46;;;;;;;11.35;6.13;;;;;;;-143.49;100.00;65027.28;5095326;28;20034;-71
2023/07/23 02:16:19;;;;;;;13.32;6.28;;;;;;;-143.49;100.00;65027.28;5095412;28;20028;-71
2023/07/23 02:18:44;;;;;;;13.10;6.40;;;;;;;-143.49;100.00;65027.28;5095227;28;20467;-71
2023/07/23 02:21:10;;;;;;;15.07;6.22;;;;;;;-143.49;100.00;65027.28;5095353;28;20058;-71
2023/07/23 02:23:35;;;;;;;13.43;6.38;;;;;;;-143.49;100.00;65027.28;5095284;28;20022;-71
2023/07/23 02:26:00;;;;;;;13.82;6.10;;;;;;;-143.49;100.00;65027.28;5077181;28;20028;-72
2023/07/23 02:28:26;;;;;;;14.93;6.53;;;;;;;-143.49;100.00;65027.28;5095306;28;20103;-71
2023/07/23 02:30:58;;;;;;;17.85;6.13;;;;;;;-143.49;100.00;65027.28;5095060;28;20027;-71
2023/07/23 02:33:24;;;;;;;12.60;6.93;;;;;;;-143.49;100.00;65027.28;5094960;28;20059;-71
2023/07/23 02:35:50;;;;;;;13.35;6.82;;;;;;;-143.49;100.00;65027.28;5076999;28;20039;-71
2023/07/23 02:38:16;;;;;;;14.38;7.20;;;;;;;-143.49;100.00;65027.28;5095228;28;20024;-71
2023/07/23 02:40:41;;;;;;;15.70;7.18;;;;;;;-143.49;100.00;65027.28;5095002;28;20383;-71
2023/07/23 02:43:09;;;;;;;11.77;6.50;;;;;;;-143.49;100.00;65027.28;5094900;28;20016;-71
2023/07/23 02:45:35;;;;;;;14.50;6.97;;;;;;;-143.49;100.00;65027.28;5094740;28;20047;-72
2023/07/23 02:48:01;;;;;;;15.75;7.57;;;;;;;-143.49;100.00;65027.28;5094663;28;20035;-72
2023/07/23 02:50:26;;;;;;;13.23;7.78;;;;;;;-143.49;100.00;65027.28;5094785;28;20028;-71
2023/07/23 02:52:52;;;;;;;13.82;7.57;;;;;;;-143.49;100.00;65027.28;5094712;28;20022;-72
2023/07/23 02:55:18;;;;;;;14.52;7.45;;;;;;;-143.49;100.00;65027.28;5094797;28;20103;-72
2023/07/23 02:57:43;;;;;;;14.88;7.57;;;;;;;-143.49;100.00;65027.28;5094439;28;20109;-72
2023/07/23 03:00:09;;;;;;;13.68;7.60;;;;;;;-143.49;100.00;65027.28;5094505;28;20462;-72
2023/07/23 03:02:34;;;;;;;14.55;7.75;;;;;;;-143.49;100.00;65027.28;5094688;28;20023;-71
2023/07/23 03:05:00;;;;;;;17.90;7.53;;;;;;;-143.49;100.00;65027.28;5094416;28;20472;-71
2023/07/23 03:07:25;;;;;;;13.75;8.13;;;;;;;-143.49;100.00;65027.28;5076221;28;20029;-71
2023/07/23 03:09:51;;;;;;;14.35;7.72;;;;;;;-143.49;100.00;65027.28;5094642;28;20498;-71
2023/07/23 03:12:17;;;;;;;15.32;8.18;;;;;;;-143.49;100.00;65027.28;5094428;28;20383;-71
2023/07/23 03:14:42;;;;;;;15.10;7.65;;;;;;;-143.49;100.00;65027.28;5094235;28;20016;-71
2023/07/23 03:17:08;;;;;;;16.02;8.00;;;;;;;-143.49;100.00;65027.28;5094476;28;20107;-71
2023/07/23 03:19:33;;;;;;;16.25;8.05;;;;;;;-143.49;100.00;65027.28;5094038;28;20356;-71
2023/07/23 03:21:58;;;;;;;16.65;8.30;;;;;;;-143.49;100.00;65027.28;5094251;28;20103;-72
2023/07/23 03:24:24;;;;;;;15.55;8.18;;;;;;;-143.49;100.00;65027.28;5094215;28;20111;-71
2023/07/23 03:26:49;;;;;;;15.40;8.00;;;;;;;-143.49;100.00;65027.28;5094002;28;20020;-71
2023/07/23 03:29:14;;;;;;;16.55;7.93;;;;;;;-143.49;100.00;65027.28;5094265;28;20501;-70
2023/07/23 03:31:40;;;;;;;13.80;8.13;;;;;;;-143.49;100.00;65027.28;5093877;28;20035;-71
2023/07/23 03:34:05;;;;;;;14.65;8.00;;;;;;;-143.49;100.00;65027.28;5094106;28;20016;-70
2023/07/23 03:36:30;;;;;;;21.40;8.27;;;;;;;-143.49;100.00;65027.28;5093936;28;20110;-71
2023/07/23 03:38:56;;;;;;;16.02;7.80;;;;;;;-143.49;100.00;65027.28;5075628;28;20108;-71
2023/07/23 03:41:21;;;;;;;16.30;7.93;;;;;;;-143.49;100.00;65027.28;5093891;28;20035;-70
2023/07/23 03:43:47;;;;;;;15.20;8.40;;;;;;;-143.49;100.00;65027.28;5075934;28;20035;-71
2023/07/23 03:46:13;;;;;;;16.27;9.02;;;;;;;-143.49;100.00;65027.28;5075764;28;20031;-71
2023/07/23 03:48:38;;;;;;;14.70;7.95;;;;;;;-143.49;100.00;65027.28;5094051;28;20468;-71
2023/07/23 03:51:04;;;;;;;15.48;8.20;;;;;;;-143.49;100.00;65027.28;5093734;28;20484;-71
2023/07/23 03:53:29;;;;;;;17.88;8.65;;;;;;;-143.49;100.00;65027.28;5093348;28;20020;-71
2023/07/23 03:55:54;;;;;;;15.07;8.20;;;;;;;-143.49;100.00;65027.28;5093407;28;20063;-71
2023/07/23 03:58:19;;;;;;;15.45;8.60;;;;;;;-143.49;100.00;65027.28;5093799;28;20020;-71
2023/07/23 04:00:45;;;;;;;14.73;8.10;;;;;;;-143.49;100.00;65027.28;5075972;28;20024;-71
2023/07/23 04:03:10;;;;;;;21.55;8.70;;;;;;;-143.49;100.00;65027.28;5094280;28;20059;-70
2023/07/23 04:05:35;;;;;;;16.60;7.97;;;;;;;-143.49;100.00;65027.28;5094119;28;20078;-70
2023/07/23 04:08:02;;;;;;;15.25;8.80;;;;;;;-143.49;100.00;65027.28;5075799;28;20075;-71
2023/07/23 04:10:27;;;;;;;14.65;8.00;;;;;;;-143.49;100.00;65027.28;5094147;28;20035;-71
2023/07/23 04:12:53;;;;;;;13.98;8.20;;;;;;;-143.49;100.00;65027.28;5095897;28;20030;-71
2023/07/23 04:15:18;;;;;;;16.23;8.40;;;;;;;-143.49;100.00;65027.28;5097853;28;20024;-71
2023/07/23 04:17:43;;;;;;;17.85;8.07;;;;;;;-143.49;100.00;65027.28;5097710;28;20375;-71
2023/07/23 04:20:09;;;;;;;21.60;8.00;;;;;;;-143.49;100.00;65027.28;5097613;28;20028;-72
2023/07/23 04:22:34;;;;;;;13.82;8.20;;;;;;;-143.49;100.00;65027.28;5097461;28;20024;-71
2023/07/23 04:25:00;;;;;;;16.08;7.82;;;;;;;-143.49;100.00;65027.28;5097723;28;20112;-72
2023/07/23 04:27:25;;;;;;;15.32;7.57;;;;;;;-143.49;100.00;65027.28;5097393;28;20031;-71
2023/07/23 04:29:51;;;;;;;15.55;7.75;;;;;;;-143.49;100.00;65027.28;5097769;28;20039;-71
2023/07/23 04:32:17;;;;;;;13.65;7.65;;;;;;;-143.49;100.00;65027.28;5097471;28;20095;-70
2023/07/23 04:34:42;;;;;;;13.25;7.68;;;;;;;-143.49;100.00;65027.28;5097243;28;20450;-70
2023/07/23 04:37:09;;;;;;;14.68;7.75;;;;;;;-143.49;100.00;65027.28;5097173;28;20024;-70
2023/07/23 04:39:34;;;;;;;14.85;7.30;;;;;;;-143.49;100.00;65027.28;5097262;28;20361;-70
2023/07/23 04:42:00;;;;;;;14.25;7.40;;;;;;;-143.49;100.00;65027.28;5097232;28;20081;-70
2023/07/23 04:44:25;;;;;;;13.52;7.00;;;;;;;-143.49;100.00;65027.28;5097213;28;20059;-70
2023/07/23 04:46:50;;;;;;;14.40;6.75;;;;;;;-143.49;100.00;65027.28;5096937;28;20502;-70
2023/07/23 04:49:15;;;;;;;11.32;6.13;;;;;;;-143.49;100.00;65027.28;5096961;28;20055;-70
2023/07/23 04:51:41;;;;;;;10.48;5.63;;;;;;;-143.49;100.00;65027.28;5097257;28;20028;-70
2023/07/23 04:54:06;;;;;;;12.90;5.70;;;;;;;-143.49;100.00;65027.28;5096885;28;20024;-71
2023/07/23 04:56:32;;;;;;;10.68;5.82;;;;;;;-143.49;100.00;65027.28;5097425;28;20483;-71
2023/07/23 04:58:57;;;;;;;13.68;6.03;;;;;;;-143.49;100.00;65027.28;5097162;28;20020;-72
2023/07/23 05:01:23;;;;;;;10.38;5.43;;;;;;;-143.49;100.00;65027.28;5097080;28;20028;-72
2023/07/23 05:03:49;;;;;;;11.57;5.38;;;;;;;-143.49;100.00;65027.28;5078835;28;20114;-71
2023/07/23 05:06:14;;;;;;;11.65;5.43;;;;;;;-143.49;100.00;65027.28;5096882;28;20062;-72
2023/07/23 05:08:39;;;;;;;14.02;5.55;;;;;;;-143.49;100.00;65027.28;5096715;28;20048;-72
2023/07/23 05:11:05;;;;;;;16.63;5.70;;;;;;;-143.49;100.00;65027.28;5078408;28;20105;-71
2023/07/23 05:13:32;;;;;;;14.15;5.82;;;;;;;-143.49;100.00;65027.28;5096603;28;20035;-71
2023/07/23 05:15:59;;;;;;;10.75;5.60;;;;;;;-143.49;100.00;65027.28;5096465;28;20027;-72
2023/07/23 05:18:25;;;;;;;12.20;5.60;;;;;;;-143.49;100.00;65027.28;5078352;28;20024;-72
2023/07/23 05:20:50;;;;;;;14.73;6.05;;;;;;;-143.49;100.00;65027.28;5096473;28;20078;-72
2023/07/23 05:23:17;;;;;;;12.43;5.50;;;;;;;-143.49;100.00;65027.28;5095849;28;20051;-72
2023/07/23 05:26:04;;;;;;;18.08;5.82;;;;;;;-143.49;100.00;65027.28;5096367;28;20043;-72
2023/07/23 05:28:29;;;;;;;10.07;5.60;;;;;;;-143.49;100.00;65027.28;5095850;28;20055;-72
2023/07/23 05:30:58;;;;;;;11.70;5.50;;;;;;;-143.49;100.00;65027.28;5096225;28;20105;-70
2023/07/23 05:33:24;;;;;;;13.52;5.63;;;;;;;-143.49;100.00;65027.28;5078339;28;20066;-70
2023/07/23 05:35:49;;;;;;;12.35;5.72;;;;;;;-143.49;100.00;65027.28;5096648;28;20083;-71
2023/07/23 05:38:14;;;;;;;14.13;5.75;;;;;;;-143.49;100.00;65027.28;5096312;28;20118;-71
2023/07/23 05:40:40;;;;;;;10.90;6.05;;;;;;;-143.49;100.00;65027.28;5096287;28;20024;-70
2023/07/23 05:43:13;;;;;;;23.33;6.18;;;;;;;-143.49;100.00;65027.28;5096167;28;20494;-71
2023/07/23 05:45:38;;;;;;;12.35;6.18;;;;;;;-143.49;100.00;65027.28;5095976;28;20053;-71
2023/07/23 05:48:04;;;;;;;17.75;5.43;;;;;;;-143.49;100.00;65027.28;5095939;28;20398;-71
2023/07/23 05:50:29;;;;;;;15.65;5.72;;;;;;;-143.49;100.00;65027.28;5095992;28;20024;-71
2023/07/23 05:52:55;;;;;;;15.85;5.53;;;;;;;-143.49;100.00;65027.28;5096083;28;20107;-71
2023/07/23 05:55:20;;;;;;;10.15;5.80;;;;;;;-143.49;100.00;65027.28;5095934;28;20055;-71
2023/07/23 05:57:46;;;;;;;13.27;5.88;;;;;;;-143.49;100.00;65027.28;5095861;28;20073;-71
2023/07/23 06:00:11;;;;;;;15.48;6.00;;;;;;;-143.49;100.00;65027.28;5095844;28;20028;-73
2023/07/23 06:02:37;;;;;;;10.98;5.60;;;;;;;-143.49;100.00;65027.28;5095893;28;20032;-72
2023/07/23 06:05:03;;;;;;;10.13;5.75;;;;;;;-143.49;100.00;65027.28;5095677;28;20024;-71
2023/07/23 06:07:28;;;;;;;10.32;5.82;;;;;;;-143.49;100.00;65027.28;5095484;28;20048;-71
2023/07/23 06:09:54;;;;;;;13.82;5.85;;;;;;;-143.49;100.00;65027.28;5095601;28;20047;-71
2023/07/23 06:12:19;;;;;;;15.57;6.60;;;;;;;-143.49;100.00;65027.28;5095381;28;20077;-71
2023/07/23 06:14:45;;;;;;;12.80;6.60;;;;;;;-143.49;100.00;65027.28;5077422;28;20042;-71
2023/07/23 06:17:10;;;;;;;14.70;6.10;;;;;;;-143.49;100.00;65027.28;5095356;28;20027;-72
2023/07/23 06:19:35;;;;;;;13.40;5.93;;;;;;;-143.49;100.00;65027.28;5095260;28;20380;-71
2023/07/23 06:22:01;;;;;;;14.25;6.25;;;;;;;-143.49;100.00;65027.28;5095312;28;20024;-72
2023/07/23 06:24:26;;;;;;;12.77;5.72;;;;;;;-143.49;100.00;65027.28;5095250;28;20520;-72
2023/07/23 06:26:51;;;;;;;12.05;6.00;;;;;;;-143.49;100.00;65027.28;5077038;28;20020;-72
2023/07/23 06:29:17;;;;;;;12.52;6.15;;;;;;;-143.49;100.00;65027.28;5095091;28;20054;-72
2023/07/23 06:31:42;;;;;;;17.88;5.72;;;;;;;-143.49;100.00;65027.28;5095332;28;20051;-71
2023/07/23 06:34:09;;;;;;;17.92;6.45;;;;;;;-143.49;100.00;65027.28;5077015;28;20051;-72
2023/07/23 06:36:34;;;;;;;11.55;6.00;;;;;;;-143.49;100.00;65027.28;5076644;28;20036;-72
2023/07/23 06:38:59;;;;;;;13.23;6.30;;;;;;;-143.49;100.00;65027.28;5094798;28;20194;-70
2023/07/23 06:41:26;;;;;;;20.05;6.82;;;;;;;-143.49;100.00;65027.28;5094910;28;20024;-71
2023/07/23 06:43:51;;;;;;;12.20;5.93;;;;;;;-143.49;100.00;65027.28;5094895;28;20038;-72
2023/07/23 06:46:19;;;;;;;11.38;5.57;;;;;;;-143.49;100.00;65027.28;5094657;28;20020;-71
2023/07/23 06:48:45;;;;;;;12.52;5.95;;;;;;;-143.49;100.00;65027.28;5094812;28;20527;-72
2023/07/23 06:51:10;;;;;;;16.65;5.93;;;;;;;-143.49;100.00;65027.28;5094829;28;20043;-71
2023/07/23 06:53:35;;;;;;;12.73;5.75;;;;;;;-143.49;100.00;65027.28;5076583;28;20040;-71
2023/07/23 06:56:03;;;;;;;14.00;6.15;;;;;;;-143.49;100.00;65027.28;5095283;28;20115;-71
2023/07/23 06:58:34;;;;;;;13.25;6.28;;;;;;;-143.49;100.00;65027.28;5076691;28;20487;-71
2023/07/23 07:00:59;;;;;;;13.20;5.93;;;;;;;-143.49;100.00;65027.28;5094356;28;20024;-71
2023/07/23 07:03:25;;;;;;;13.15;5.97;;;;;;;-143.49;100.00;65027.28;5076319;28;20096;-71
2023/07/23 07:05:51;;;;;;;14.05;6.03;;;;;;;-143.49;100.00;65027.28;5076342;28;20024;-70
2023/07/23 07:08:16;;;;;;;12.40;5.93;;;;;;;-143.49;100.00;65027.28;5094545;28;20052;-71
2023/07/23 07:10:42;;;;;;;11.05;5.88;;;;;;;-143.49;100.00;65027.28;5094530;28;20020;-70
2023/07/23 07:13:07;;;;;;;12.80;5.65;;;;;;;-143.49;100.00;65027.28;5094459;28;20521;-70
2023/07/23 07:15:32;;;;;;;16.00;5.53;;;;;;;-143.49;100.00;65027.28;5094347;28;20495;-70
2023/07/23 07:17:57;;;;;;;13.35;5.65;;;;;;;-143.49;100.00;65027.28;5094272;28;20054;-70
2023/07/23 07:20:23;;;;;;;9.93;5.90;;;;;;;-143.49;100.00;65027.28;5093916;28;20028;-71
2023/07/23 07:22:48;;;;;;;12.15;5.82;;;;;;;-143.49;100.00;65027.28;5094173;28;20059;-70
2023/07/23 07:25:14;;;;;;;13.55;6.13;;;;;;;-143.49;100.00;65027.28;5094096;28;20028;-71
2023/07/23 07:27:39;;;;;;;10.48;5.78;;;;;;;-143.49;100.00;65027.28;5094231;28;20028;-72
2023/07/23 07:30:05;;;;;;;14.32;6.30;;;;;;;-143.49;100.00;65027.28;5094136;28;20054;-70
2023/07/23 07:32:31;;;;;;;12.35;5.80;;;;;;;-143.49;100.00;65027.28;5094210;28;20024;-70
2023/07/23 07:34:56;;;;;;;13.20;5.68;;;;;;;-143.49;100.00;65027.28;5093853;28;20043;-70
2023/07/23 07:37:22;;;;;;;12.00;6.25;;;;;;;-143.49;100.00;65027.28;5094120;28;20084;-71
2023/07/23 07:39:47;;;;;;;13.02;6.05;;;;;;;-143.49;100.00;65027.28;5094008;28;20024;-71
2023/07/23 07:42:13;;;;;;;11.43;5.70;;;;;;;-143.49;100.00;65027.28;5093994;28;20031;-72
2023/07/23 07:44:38;;;;;;;10.82;5.82;;;;;;;-143.49;100.00;65027.28;5094013;28;20514;-72
2023/07/23 07:47:03;;;;;;;12.65;5.57;;;;;;;-143.49;100.00;65027.28;5093404;28;20110;-72
2023/07/23 07:49:29;;;;;;;13.07;6.10;;;;;;;-143.49;100.00;65027.28;5094026;28;20020;-72
2023/07/23 07:51:54;;;;;;;11.15;5.80;;;;;;;-143.49;100.00;65027.28;5093831;28;20060;-72
2023/07/23 07:54:19;;;;;;;9.13;5.40;;;;;;;-143.49;100.00;65027.28;5075588;28;20070;-72
2023/07/23 07:56:45;;;;;;;9.10;6.00;;;;;;;-143.49;100.00;65027.28;5094257;28;20030;-73
2023/07/23 07:59:10;;;;;;;11.55;5.18;;;;;;;-143.49;100.00;65027.28;5093618;28;20515;-72
2023/07/23 08:01:36;;;;;;;11.90;5.75;;;;;;;-143.49;100.00;65027.28;5093967;28;20340;-71
2023/07/23 08:04:03;;;;;;;10.93;5.93;;;;;;;-143.49;100.00;65027.28;5093614;28;20387;-71
2023/07/23 08:06:30;;;;;;;16.55;5.82;;;;;;;-143.49;100.00;65027.28;5093805;28;20026;-72
2023/07/23 08:08:57;;;;;;;12.93;5.75;;;;;;;-143.49;100.00;65027.28;5093742;28;20073;-71
2023/07/23 08:11:25;;;;;;;10.45;5.63;;;;;;;-143.49;100.00;65027.28;5093781;28;20115;-72
2023/07/23 08:13:50;;;;;;;12.20;5.80;;;;;;;-143.49;100.00;65027.28;5092909;28;20036;-72
2023/07/23 08:16:17;;;;;;;9.00;5.82;;;;;;;-143.49;100.00;65027.28;5093449;28;20024;-72
2023/07/23 08:18:44;;;;;;;13.00;5.40;;;;;;;-143.49;100.00;65027.28;5093567;28;20125;-72
2023/07/23 08:21:10;;;;;;;10.82;5.30;;;;;;;-143.49;100.00;65027.28;5093435;28;20028;-72
2023/07/23 08:23:36;;;;;;;10.30;5.43;;;;;;;-143.49;100.00;65027.28;5093236;28;20050;-72
2023/07/23 08:26:04;;;;;;;11.98;5.55;;;;;;;-143.49;100.00;65027.28;5093399;28;20028;-72
2023/07/23 08:28:33;;;;;;;9.65;5.47;;;;;;;-143.49;100.00;65027.28;5093645;28;20475;-70
2023/07/23 08:31:00;;;;;;;12.93;5.63;;;;;;;-143.49;100.00;65027.28;5093356;28;20047;-72
2023/07/23 08:33:28;;;;;;;10.20;5.38;;;;;;;-143.49;100.00;65027.28;5075308;28;20155;-72
2023/07/23 08:35:54;;;;;;;8.77;5.70;;;;;;;-143.49;100.00;65027.28;5093452;28;20024;-71
2023/07/23 08:38:19;;;;;;;11.75;4.93;;;;;;;-143.49;100.00;65027.28;5093242;28;20020;-72
2023/07/23 08:40:45;;;;;;;11.25;5.40;;;;;;;-143.49;100.00;65027.28;5075127;28;20028;-72
2023/07/23 08:43:26;;;;;;;9.30;5.10;;;;;;;-143.49;100.00;65027.28;5093462;28;20020;-71
2023/07/23 08:46:17;;;;;;;12.38;5.20;;;;;;;-143.49;100.00;65027.28;5093500;28;20028;-72
2023/07/23 08:49:03;;;;;;;8.35;4.85;;;;;;;-143.49;100.00;65027.28;5093218;28;20047;-71
2023/07/23 08:51:39;;;;;;;8.95;5.20;;;;;;;-143.49;100.00;65027.28;5093187;28;20035;-72
2023/07/23 08:54:06;;;;;;;8.85;5.03;;;;;;;-143.49;100.00;65027.28;5092635;28;20028;-71
2023/07/23 08:56:33;;;;;;;12.63;5.55;;;;;;;-143.49;100.00;65027.28;5074970;28;20079;-72
2023/07/23 08:59:01;;;;;;;10.90;5.43;;;;;;;-143.49;100.00;65027.28;5094910;28;20028;-72
2023/07/23 09:01:31;;;;;;;9.13;5.18;;;;;;;-143.49;100.00;65027.28;5096999;28;20057;-72
2023/07/23 09:03:56;;;;;;;8.95;5.22;;;;;;;-143.49;100.00;65027.28;5096953;28;20024;-71
2023/07/23 09:06:22;;;;;;;9.68;5.35;;;;;;;-143.49;100.00;65027.28;5096852;28;20511;-72
2023/07/23 09:08:50;;;;;;;9.30;5.25;;;;;;;-143.49;100.00;65027.28;5096553;28;20097;-72
2023/07/23 09:11:15;;;;;;;11.05;5.60;;;;;;;-143.49;100.00;65027.28;5096679;28;20099;-72
2023/07/23 09:13:40;;;;;;;10.35;5.53;;;;;;;-143.49;100.00;65027.28;5096766;28;20048;-72
2023/07/23 09:16:06;;;;;;;8.90;5.20;;;;;;;-143.49;100.00;65027.28;5096913;28;20028;-71
2023/07/23 09:18:39;;;;;;;13.57;5.45;;;;;;;-143.49;100.00;65027.28;5096812;28;20103;-71
2023/07/23 09:21:04;;;;;;;9.55;5.25;;;;;;;-143.49;100.00;65027.28;5078256;28;20028;-71
2023/07/23 09:23:29;;;;;;;9.23;5.45;;;;;;;-143.49;100.00;65027.28;5078292;28;20016;-71
2023/07/23 09:26:00;;;;;;;9.00;5.05;;;;;;;-143.49;100.00;65027.28;5096341;28;20107;-71
2023/07/23 09:28:26;;;;;;;9.38;5.18;;;;;;;-143.49;100.00;65027.28;5078257;28;20020;-71
2023/07/23 09:30:56;;;;;;;9.55;5.13;;;;;;;-143.49;100.00;65027.28;5096399;28;20527;-72
2023/07/23 09:33:29;;;;;;;10.77;5.18;;;;;;;-143.49;100.00;65027.28;5096350;28;20387;-71
2023/07/23 09:35:59;;;;;;;9.65;5.28;;;;;;;-143.49;100.00;65027.28;5096187;28;20022;-71
2023/07/23 09:38:24;;;;;;;9.60;5.60;;;;;;;-143.49;100.00;65027.28;5096139;28;20024;-72
2023/07/23 09:40:49;;;;;;;8.68;5.03;;;;;;;-143.49;100.00;65027.28;5096119;28;20421;-71
2023/07/23 09:43:15;;;;;;;8.98;5.03;;;;;;;-143.49;100.00;65027.28;5096071;28;20031;-72
2023/07/23 09:45:43;;;;;;;11.73;5.10;;;;;;;-143.49;100.00;65027.28;5096151;28;20024;-71
2023/07/23 09:48:13;;;;;;;8.75;5.00;;;;;;;-143.49;100.00;65027.28;5096117;28;20020;-71
2023/07/23 09:50:39;;;;;;;9.23;5.38;;;;;;;-143.49;100.00;65027.28;5096102;28;20076;-71
2023/07/23 09:53:07;;;;;;;9.23;5.43;;;;;;;-143.49;100.00;65027.28;5095898;28;20107;-71
2023/07/23 09:55:34;;;;;;;11.60;5.25;;;;;;;-143.49;100.00;65027.28;5077709;28;20494;-71
2023/07/23 09:58:02;;;;;;;11.85;5.35;;;;;;;-143.49;100.00;65027.28;5096008;28;20408;-70
2023/07/23 10:00:27;;;;;;;8.48;5.07;;;;;;;-143.49;100.00;65027.28;5077552;28;20054;-72
2023/07/23 10:02:55;;;;;;;10.30;5.20;;;;;;;-143.49;100.00;65027.28;5095769;28;20113;-71
2023/07/23 10:05:23;;;;;;;9.02;5.43;;;;;;;-143.49;100.00;65027.28;5095681;28;20149;-72
2023/07/23 10:07:48;;;;;;;12.13;5.53;;;;;;;-143.49;100.00;65027.28;5095643;28;20073;-71
2023/07/23 10:10:15;;;;;;;12.88;4.93;;;;;;;-143.49;100.00;65027.28;5094772;28;20095;-71
2023/07/23 10:12:41;;;;;;;7.97;5.18;;;;;;;-143.49;100.00;65027.28;5077289;28;20137;-72
2023/07/23 10:15:07;;;;;;;8.48;5.47;;;;;;;-143.49;100.00;65027.28;5095575;28;20502;-72
2023/07/23 10:17:37;;;;;;;8.95;5.40;;;;;;;-143.49;100.00;65027.28;5095692;28;20023;-71
2023/07/23 10:20:05;;;;;;;8.05;5.03;;;;;;;-143.49;100.00;65027.28;5095132;28;20028;-71
2023/07/23 10:22:34;;;;;;;8.40;5.50;;;;;;;-143.49;100.00;65027.28;5095369;28;20030;-71
2023/07/23 10:24:59;;;;;;;7.40;4.90;;;;;;;-143.49;100.00;65027.28;5095303;28;20020;-70
2023/07/23 10:27:24;;;;;;;9.18;4.90;;;;;;;-143.49;100.00;65027.28;5095184;28;20081;-71
2023/07/23 10:30:17;;;;;;;8.02;4.78;;;;;;;-143.49;100.00;65027.28;5077075;28;20371;-71
2023/07/23 10:32:45;;;;;;;8.10;5.00;;;;;;;-143.49;100.00;65027.28;5095247;28;20020;-71
2023/07/23 10:35:10;;;;;;;7.10;4.40;;;;;;;-143.49;100.00;65027.28;5076848;28;20134;-72
2023/07/23 10:37:35;;;;;;;6.95;4.70;;;;;;;-143.49;100.00;65027.28;5094946;28;20056;-71
2023/07/23 10:40:03;;;;;;;6.57;4.57;;;;;;;-143.49;100.00;65027.28;5076755;28;20118;-71
2023/07/23 10:42:33;;;;;;;7.90;4.95;;;;;;;-143.49;100.00;65027.28;5094881;28;20028;-71
2023/07/23 10:45:16;;;;;;;6.88;4.45;;;;;;;-143.49;100.00;65027.28;5095019;28;20395;-71
2023/07/23 10:47:53;;;;;;;7.82;4.70;;;;;;;-143.49;100.00;65027.28;5094916;28;20028;-71
2023/07/23 10:50:20;;;;;;;9.35;4.50;;;;;;;-143.49;100.00;65027.28;5094844;28;20502;-71
2023/07/23 10:52:49;;;;;;;9.32;4.63;;;;;;;-143.49;100.00;65027.28;5094618;28;20020;-71
2023/07/23 10:55:33;;;;;;;10.52;5.07;;;;;;;-143.49;100.00;65027.28;5094912;28;20027;-71
2023/07/23 10:58:09;;;;;;;9.55;5.00;;;;;;;-143.49;100.00;65027.28;5076548;28;20375;-71
2023/07/23 11:00:34;;;;;;;9.32;4.90;;;;;;;-143.49;100.00;65027.28;5076625;28;20046;-72
2023/07/23 11:03:00;;;;;;;9.98;5.15;;;;;;;-143.49;100.00;65027.28;5094525;28;20024;-71